• Join FlightAware (Why Join?)
  • Login
  • US Flag 
11:06AM EDT


 

Airport Tracker/Info


-or-


 

Live Flight TrackerFlight Track Log ✈ UAL1519 ✈ 21-Mar-2014 ✈ KEWR - TIST / STT

Flight Track Log - Related Links

Times and Time Zones

All times are in EDT time to prevent confusion due to time zone crossing. See the UAL1519 flight status page for this flight to view local times or setup timezone preferences in your user account.

Time Position Orientation Groundspeed Altitude Reporting Facility
EDT Latitude Longitude Course Direction KTS MPH feet Rate Location/Type
09:37AM 40.6333 -74.2000 110° East 210 242 3,100  Level New York TRACON
09:38AM 40.5833 -74.2500 217° Southwest 244 281 5,500 1,500 Climbing New York TRACON
09:39AM 40.3422 -74.1692 161° South  Level FlightAware Approximate
09:39AM 40.5167 -74.2667 191° South 289 333 6,000  Level New York TRACON
09:40AM 40.2185 -74.1500 180° South  Level FlightAware Approximate
09:40AM 40.4500 -74.2333 159° South 291 335 6,000  Level New York TRACON
09:41AM 40.0924 -74.1500 180° South  Level FlightAware Approximate
09:42AM 40.0481 -74.0130 123° Southeast  Level FlightAware Approximate
09:42AM 40.3192 -74.1656 158° South 301 346 6,900  Level New York Center
09:43AM 40.0001 -73.8615 110° East  Level FlightAware Approximate
09:43AM 40.2461 -74.1619 178° South 294 338 10,200  Level New York Center
09:44AM 40.1481 -74.1653 181° South 303 349 13,200 2,700 Climbing New York Center
09:45AM 40.0861 -74.0728 131° Southeast 321 369 15,600 2,400 Climbing New York Center
09:46AM 40.0817 -73.9314 92° East 341 392 18,100 2,040 Climbing New York Center
09:47AM 40.0667 -73.7925 98° East 366 421 19,700 2,220 Climbing New York Center
09:48AM 40.0600 -73.6403 93° East 404 465 22,600 1,980 Climbing New York Center
09:49AM 40.0078 -73.4700 112° Southeast 443 510 23,700 1,560 Climbing New York Center
09:50AM 39.9675 -73.3194 109° East 449 517 25,800 1,860 Climbing New York Center
09:51AM 39.9208 -73.1608 111° Southeast 454 522 27,500 1,500 Climbing New York Center
09:52AM 39.8697 -72.9994 112° Southeast 459 528 28,800 1,320 Climbing New York Center
09:53AM 39.7850 -72.8564 128° Southeast 478 550 30,200 1,200 Climbing New York Center
09:54AM 39.6850 -72.7267 135° Southeast 489 563 31,300 1,200 Climbing New York Center
09:55AM 39.5850 -72.5944 134° Southeast 502 578 32,700 840 Climbing New York Center
09:56AM 39.4892 -72.4600 133° Southeast 508 585 33,000 120 Climbing New York Center
09:57AM 39.3886 -72.3342 136° Southeast 508 585 33,000  Level New York Center
09:58AM 39.2925 -72.2086 135° Southeast 503 579 33,000 300 Level New York Center
09:59AM 39.1939 -72.0833 135° Southeast 498 573 33,600 960 Climbing New York Center
10:00AM 39.0931 -71.9583 136° Southeast 498 573 35,000 660 Climbing New York Center
10:01AM 38.9964 -71.8258 133° Southeast 498 573 35,000  Level New York Center
10:02AM 38.8972 -71.6989 135° Southeast 498 573 35,000  Level New York Center
10:03AM 38.7981 -71.5775 136° Southeast 498 573 35,000  Level New York Center
10:04AM 38.7011 -71.4489 134° Southeast 498 573 35,000  Level New York Center
10:05AM 38.5994 -71.3228 136° Southeast 503 579 35,000  Level New York Center
10:06AM 38.4981 -71.1972 136° Southeast 503 579 35,000  Level New York Center
10:07AM 38.3983 -71.0722 135° Southeast 503 579 35,000  Level New York Center
10:08AM 38.2986 -70.9472 135° Southeast 503 579 35,000  Level New York Center
10:09AM 38.1986 -70.8281 137° Southeast 503 579 35,000  Level New York Center
10:10AM 38.1006 -70.7011 134° Southeast 503 579 35,000  Level New York Center
10:11AM 37.9983 -70.5881 139° Southeast 498 573 35,000  Level New York Center
10:12AM 37.8814 -70.5067 151° Southeast 487 560 35,000  Level New York Center
10:13AM 37.7622 -70.4308 153° Southeast 478 550 35,000  Level New York Center
10:14AM 37.6453 -70.3525 152° Southeast 478 550 35,000  Level New York Center
10:15AM 37.5219 -70.2850 157° South 478 550 35,000  Level New York Center
10:27AM 36.1667 -69.4500 168° South 448 516 35,000  Level New York Oceanic (ODAPS)
10:28AM 36.0746 -69.4293 167° South  Level FlightAware Approximate
10:29AM 35.9520 -69.3956 167° South  Level FlightAware Approximate
10:30AM 35.8294 -69.3621 167° South  Level FlightAware Approximate
10:31AM 35.7068 -69.3287 168° South  Level FlightAware Approximate
10:32AM 35.5842 -69.2953 168° South  Level FlightAware Approximate
10:33AM 35.3120 -69.2213 168° South 448 516 35,000  Level FlightAware Transoceanic
10:34AM 35.1899 -69.1891 168° South 448 516 35,000  Level FlightAware Transoceanic
10:35AM 35.0677 -69.1569 168° South 448 516 35,000  Level FlightAware Transoceanic
10:36AM 34.9456 -69.1248 168° South 448 516 35,000  Level FlightAware Transoceanic
10:37AM 34.8235 -69.0928 168° South 448 516 35,000  Level FlightAware Transoceanic
10:38AM 34.7013 -69.0609 168° South 448 516 35,000  Level FlightAware Transoceanic
10:39AM 34.5791 -69.0291 168° South 448 516 35,000  Level FlightAware Transoceanic
10:40AM 34.4570 -68.9974 168° South 448 516 35,000  Level FlightAware Transoceanic
10:41AM 34.3348 -68.9658 168° South 448 516 35,000  Level FlightAware Transoceanic
10:42AM 34.2126 -68.9343 168° South 448 516 35,000  Level FlightAware Transoceanic
10:43AM 34.0904 -68.9029 168° South 448 516 35,000  Level FlightAware Transoceanic
10:44AM 33.9682 -68.8716 168° South 448 516 35,000  Level FlightAware Transoceanic
10:45AM 33.8459 -68.8403 168° South 448 516 35,000  Level FlightAware Transoceanic
10:46AM 33.7237 -68.8092 168° South 448 516 35,000  Level FlightAware Transoceanic
10:47AM 33.6015 -68.7781 168° South 448 516 35,000  Level FlightAware Transoceanic
10:48AM 33.4792 -68.7471 168° South 448 516 35,000  Level FlightAware Transoceanic
10:49AM 33.3570 -68.7162 168° South 448 516 35,000  Level FlightAware Transoceanic
10:50AM 33.2347 -68.6854 168° South 448 516 35,000  Level FlightAware Transoceanic
10:51AM 33.1125 -68.6547 168° South 448 516 35,000  Level FlightAware Transoceanic
10:52AM 32.9902 -68.6241 168° South 448 516 35,000  Level FlightAware Transoceanic
10:53AM 32.8679 -68.5935 168° South 448 516 35,000  Level FlightAware Transoceanic
10:54AM 32.7456 -68.5631 168° South 448 516 35,000  Level FlightAware Transoceanic
10:55AM 32.6233 -68.5327 168° South 448 516 35,000  Level FlightAware Transoceanic
10:56AM 32.5010 -68.5024 168° South 448 516 35,000  Level FlightAware Transoceanic
10:57AM 32.3787 -68.4722 168° South 448 516 35,000  Level FlightAware Transoceanic
10:58AM 32.2564 -68.4420 168° South 448 516 35,000  Level FlightAware Transoceanic
10:59AM 32.1341 -68.4120 168° South 448 516 35,000  Level FlightAware Transoceanic
11:00AM 32.0117 -68.3820 168° South 448 516 35,000  Level FlightAware Transoceanic
11:01AM 31.8894 -68.3521 168° South 448 516 35,000  Level FlightAware Transoceanic
11:02AM 31.7671 -68.3223 168° South 448 516 35,000  Level FlightAware Transoceanic
11:03AM 31.6447 -68.2926 168° South 448 516 35,000  Level FlightAware Transoceanic
11:04AM 31.5224 -68.2629 168° South 448 516 35,000  Level FlightAware Transoceanic
11:05AM 31.4000 -68.2333 169° South 448 516 35,000  Level FlightAware Transoceanic
11:06AM 31.2834 -68.2056 169° South 448 516 35,000  Level FlightAware Transoceanic
11:07AM 31.1669 -68.1780 169° South 448 516 35,000  Level FlightAware Transoceanic
11:08AM 31.0503 -68.1504 169° South 448 516 35,000  Level FlightAware Transoceanic
11:09AM 30.9337 -68.1229 169° South 448 516 35,000  Level FlightAware Transoceanic
11:10AM 30.8171 -68.0954 169° South 448 516 35,000  Level FlightAware Transoceanic
11:11AM 30.7005 -68.0681 169° South 448 516 35,000  Level FlightAware Transoceanic
11:12AM 30.5839 -68.0408 169° South 448 516 35,000  Level FlightAware Transoceanic
11:13AM 30.4673 -68.0135 169° South 448 516 35,000  Level FlightAware Transoceanic
11:14AM 30.3507 -67.9863 169° South 448 516 35,000  Level FlightAware Transoceanic
11:15AM 30.2341 -67.9592 169° South 448 516 35,000  Level FlightAware Transoceanic
11:16AM 30.1174 -67.9322 169° South 448 516 35,000  Level FlightAware Transoceanic
11:17AM 30.0008 -67.9052 169° South 448 516 35,000  Level FlightAware Transoceanic
11:18AM 29.8842 -67.8783 169° South 448 516 35,000  Level FlightAware Transoceanic
11:19AM 29.7675 -67.8514 169° South 448 516 35,000  Level FlightAware Transoceanic
11:20AM 29.6509 -67.8246 169° South 448 516 35,000  Level FlightAware Transoceanic
11:21AM 29.5342 -67.7979 169° South 448 516 35,000  Level FlightAware Transoceanic
11:22AM 29.4176 -67.7712 169° South 448 516 35,000  Level FlightAware Transoceanic
11:23AM 29.3009 -67.7446 169° South 448 516 35,000  Level FlightAware Transoceanic
11:24AM 29.1842 -67.7180 169° South 448 516 35,000  Level FlightAware Transoceanic
11:25AM 29.0676 -67.6915 169° South 448 516 35,000  Level FlightAware Transoceanic
11:26AM 28.9509 -67.6651 169° South 448 516 35,000  Level FlightAware Transoceanic
11:27AM 28.8342 -67.6387 169° South 448 516 35,000  Level FlightAware Transoceanic
11:28AM 28.7175 -67.6124 169° South 448 516 35,000  Level FlightAware Transoceanic
11:29AM 28.6008 -67.5862 169° South 448 516 35,000  Level FlightAware Transoceanic
11:30AM 28.4841 -67.5600 169° South 448 516 35,000  Level FlightAware Transoceanic
11:31AM 28.3674 -67.5338 169° South 448 516 35,000  Level FlightAware Transoceanic
11:32AM 28.2507 -67.5077 169° South 448 516 35,000  Level FlightAware Transoceanic
11:33AM 28.1340 -67.4817 169° South 448 516 35,000  Level FlightAware Transoceanic
11:34AM 28.0173 -67.4557 169° South 448 516 35,000  Level FlightAware Transoceanic
11:35AM 27.9005 -67.4298 169° South 448 516 35,000  Level FlightAware Transoceanic
11:36AM 27.7838 -67.4040 169° South 448 516 35,000  Level FlightAware Transoceanic
11:37AM 27.6671 -67.3782 169° South 448 516 35,000  Level FlightAware Transoceanic
11:38AM 27.5503 -67.3524 169° South 448 516 35,000  Level FlightAware Transoceanic
11:39AM 27.4336 -67.3268 169° South 448 516 35,000  Level FlightAware Transoceanic
11:40AM 27.3168 -67.3011 169° South 448 516 35,000  Level FlightAware Transoceanic
11:41AM 27.2001 -67.2755 169° South 448 516 35,000  Level FlightAware Transoceanic
11:42AM 27.0792 -67.2373 164° South  Level FlightAware Approximate
11:43AM 26.9583 -67.1991 164° South  Level FlightAware Approximate
11:44AM 26.9552 -67.1842 159° South  Level FlightAware Approximate
11:45AM 26.8383 -67.1328 159° South  Level FlightAware Approximate
11:46AM 26.7214 -67.0815 159° South  Level FlightAware Approximate
11:47AM 26.6045 -67.0303 159° South  Level FlightAware Approximate
11:48AM 26.4875 -66.9792 159° South  Level FlightAware Approximate
11:49AM 26.3705 -66.9282 159° South  Level FlightAware Approximate
11:49AM 27.0833 -67.2500 158° South 467 537 35,000  Level New York Oceanic (ODAPS)
12:22PM 21.8333 -65.0500 166° South 570 656 37,000  Climbing San Juan Center
12:23PM 22.1000 -65.1333 166° South 467 537 35,000  Descending FlightAware Transoceanic
12:23PM 21.7000 -65.0333 173° South 610 702 37,000  Climbing San Juan Center
12:24PM 21.9771 -65.0998 166° South 467 537 35,000  Descending FlightAware Transoceanic
12:24PM 21.5833 -65.0167 172° South 550 633 37,000  Climbing San Juan Center
12:25PM 21.8542 -65.0663 166° South 467 537 35,000 -120 Descending FlightAware Transoceanic
12:25PM 21.4333 -65.0667 197° South 490 564 36,900  Climbing San Juan Center
12:26PM 21.7313 -65.0329 166° South 467 537 35,000  Descending FlightAware Transoceanic
12:26PM 21.3000 -65.0667 180° South 480 552 36,900  Climbing San Juan Center
12:27PM 21.6084 -64.9995 166° South 467 537 35,000 60 Descending FlightAware Transoceanic
12:27PM 21.1500 -65.0833 186° South 500 575 37,000 1,260 Climbing San Juan Center
12:28PM 21.0167 -65.1000 187° South 490 564 37,000  Level San Juan Center
12:29PM 20.9000 -65.1167 188° South 470 541 37,000  Level San Juan Center
12:31PM 20.6167 -65.1500 169° South 490 564 37,000 -240 Level San Juan Center
12:32PM 20.4833 -65.1667 187° South 490 564 36,300 -900 Descending San Juan Center
12:33PM 20.3500 -65.1667 180° South 480 552 35,300 -960 Descending San Juan Center
12:34PM 20.2167 -65.1833 187° South 480 552 34,400 -960 Descending San Juan Center
12:35PM 20.0833 -65.2000 187° South 470 541 33,400 -900 Descending San Juan Center
12:36PM 19.9500 -65.2167 187° South 480 552 32,600 -960 Descending San Juan Center
12:37PM 19.8167 -65.2333 187° South 480 552 31,500 -1,320 Descending San Juan Center
12:38PM 19.7000 -65.2500 188° South 470 541 30,000 -1,920 Descending San Juan Center
12:39PM 19.5667 -65.2500 180° South 460 529 27,700 -2,400 Descending San Juan Center
12:40PM 19.4333 -65.2667 187° South 450 518 25,300 -2,520 Descending San Juan Center
12:41PM 19.3167 -65.2833 188° South 440 506 22,700 -2,340 Descending San Juan Center
12:42PM 19.2000 -65.3000 188° South 420 483 20,600 -2,160 Descending San Juan Center
12:43PM 19.0667 -65.3167 187° South 400 460 18,400 -2,160 Descending San Juan Center
12:44PM 18.9667 -65.3333 189° South 380 437 16,300 -2,160 Descending San Juan Center
12:45PM 18.8667 -65.3333 180° South 370 426 14,100 -2,160 Descending San Juan Center
12:46PM 18.7667 -65.3500 189° South 360 414 12,000 -1,740 Descending San Juan Center
12:47PM 18.6667 -65.3500 180° South 340 391 10,700 -1,320 Descending San Juan Center
12:48PM 18.6000 -65.3167 155° Southeast 310 357 9,400 -1,560 Descending San Juan Center
12:49PM 18.5167 -65.2667 150° Southeast 290 334 7,600 -1,680 Descending San Juan Center
12:50PM 18.4500 -65.2333 155° Southeast 260 299 6,100 -1,680 Descending San Juan Center
12:51PM 18.4000 -65.2167 162° South 240 276 4,300 -1,500 Descending San Juan Center
12:52PM 18.3500 -65.1667 136° Southeast 200 230 3,100 -1,140 Descending San Juan Center
12:53PM 18.3167 -65.1333 136° Southeast 170 196 2,100 -600 Descending San Juan Center
12:54PM 18.3333 -65.0833 71° East 150 173 2,000 -480 Descending San Juan Center
12:55PM 18.3333 -65.0333 90° East 130 150 1,200 -780 Descending San Juan Center
12:56PM 18.3333 -65.0000 90° East 160 184 500 -720 Descending San Juan Center